createdAt,value
2023-05-05T00:00:33.791Z,99.89
2023-05-05T00:01:35.469Z,99.30
2023-05-05T00:02:37.106Z,99.01
2023-05-05T00:03:38.747Z,98.52
2023-05-05T00:04:40.407Z,98.45
2023-05-05T00:05:41.934Z,98.48
2023-05-05T00:06:43.510Z,98.56
2023-05-05T00:07:45.036Z,99.03
2023-05-05T00:08:46.954Z,100.00
2023-05-05T00:09:48.555Z,100.00
2023-05-05T00:10:51.528Z,100.00
2023-05-05T00:11:53.258Z,100.00
2023-05-05T00:12:54.914Z,100.00
2023-05-05T00:13:56.510Z,100.00
2023-05-05T00:14:58.116Z,100.00
2023-05-05T00:16:00.059Z,100.00
2023-05-05T00:17:01.636Z,99.92
2023-05-05T00:18:03.395Z,99.48
2023-05-05T00:19:04.984Z,99.58
2023-05-05T00:20:07.775Z,99.99
2023-05-05T00:21:09.541Z,99.95
2023-05-05T00:22:11.112Z,100.00
2023-05-05T00:23:13.518Z,100.00
2023-05-05T00:24:15.073Z,99.85
2023-05-05T00:25:16.694Z,100.00
2023-05-05T00:26:18.250Z,99.91
2023-05-05T00:27:23.554Z,99.77
2023-05-05T00:28:25.329Z,100.00
2023-05-05T00:29:26.886Z,100.00
2023-05-05T00:30:28.566Z,99.87
2023-05-05T00:31:30.116Z,99.95
2023-05-05T00:32:31.738Z,100.00
2023-05-05T00:33:33.349Z,100.00
2023-05-05T00:34:34.886Z,100.00
2023-05-05T00:35:36.446Z,100.00
2023-05-05T00:36:38.039Z,100.00
2023-05-05T00:37:39.581Z,100.00
2023-05-05T00:38:41.094Z,100.00
2023-05-05T00:39:44.354Z,100.00
2023-05-05T00:40:45.985Z,100.00
2023-05-05T00:41:47.512Z,100.00
2023-05-05T00:42:49.595Z,100.00
2023-05-05T00:43:51.137Z,100.00
2023-05-05T00:44:52.716Z,100.00
2023-05-05T00:46:02.719Z,100.00
2023-05-05T00:47:04.918Z,100.00
2023-05-05T00:48:06.669Z,100.00
2023-05-05T00:49:08.615Z,100.00
2023-05-05T00:50:14.048Z,100.00
2023-05-05T00:51:17.073Z,100.00
2023-05-05T00:52:18.733Z,100.00
2023-05-05T00:53:20.336Z,100.00
2023-05-05T00:54:22.414Z,100.00
2023-05-05T00:55:24.493Z,100.00
2023-05-05T00:56:27.091Z,100.00
2023-05-05T00:57:28.939Z,100.00
2023-05-05T00:58:30.578Z,100.00
2023-05-05T00:59:33.750Z,100.00
2023-05-05T01:00:35.421Z,100.00
2023-05-05T01:01:37.041Z,100.00
2023-05-05T01:02:39.960Z,100.00
2023-05-05T01:03:41.794Z,100.00
2023-05-05T01:04:43.489Z,100.00
2023-05-05T01:06:16.204Z,100.00
2023-05-05T01:07:28.339Z,100.00
2023-05-05T01:08:51.053Z,100.00
2023-05-05T01:10:18.185Z,100.00
2023-05-05T01:11:30.950Z,100.00
2023-05-05T01:13:00.189Z,100.00
2023-05-05T01:14:10.781Z,100.00
2023-05-05T01:15:23.749Z,100.00
2023-05-05T01:16:29.313Z,100.00
2023-05-05T01:17:42.632Z,100.00
2023-05-05T01:18:58.331Z,100.00
2023-05-05T01:20:14.651Z,100.00
2023-05-05T01:21:18.923Z,100.00
2023-05-05T01:22:24.815Z,100.00
2023-05-05T01:23:35.283Z,100.00
2023-05-05T01:24:55.325Z,100.00
2023-05-05T01:26:13.623Z,100.00
2023-05-05T01:27:35.024Z,100.00
2023-05-05T01:28:54.693Z,100.00
2023-05-05T01:30:01.912Z,100.00
2023-05-05T01:31:17.635Z,100.00
2023-05-05T01:32:25.507Z,100.00
2023-05-05T01:33:31.334Z,100.00
2023-05-05T01:34:36.917Z,100.00
2023-05-05T01:35:50.360Z,100.00
2023-05-05T01:36:58.430Z,100.00
2023-05-05T01:38:11.616Z,100.00
2023-05-05T01:39:16.311Z,100.00
2023-05-05T01:40:25.036Z,100.00
2023-05-05T01:41:32.094Z,100.00
2023-05-05T01:42:36.242Z,100.00
2023-05-05T01:43:39.622Z,100.00
2023-05-05T01:44:46.396Z,100.00
2023-05-05T01:45:48.963Z,100.00
2023-05-05T01:46:52.081Z,100.00
2023-05-05T01:47:56.216Z,100.00
2023-05-05T01:48:58.814Z,100.00
2023-05-05T01:50:01.422Z,100.00
2023-05-05T01:51:05.313Z,100.00
2023-05-05T01:52:08.880Z,100.00
2023-05-05T01:53:11.749Z,100.00
2023-05-05T01:54:15.166Z,100.00
2023-05-05T01:55:18.731Z,100.00
2023-05-05T01:56:23.724Z,100.00
2023-05-05T01:57:27.833Z,100.00
2023-05-05T01:58:31.595Z,100.00
2023-05-05T01:59:35.592Z,100.00
2023-05-05T02:00:38.405Z,100.00
2023-05-05T02:01:41.007Z,100.00
2023-05-05T02:02:46.674Z,100.00
2023-05-05T02:03:50.613Z,100.00
2023-05-05T02:04:54.504Z,100.00
2023-05-05T02:06:00.209Z,100.00
2023-05-05T02:07:03.540Z,100.00
2023-05-05T02:08:05.944Z,100.00
2023-05-05T02:09:11.749Z,100.00
2023-05-05T02:10:14.369Z,100.00
2023-05-05T02:11:18.670Z,100.00
2023-05-05T02:12:21.449Z,100.00
2023-05-05T02:13:25.128Z,100.00
2023-05-05T02:14:28.902Z,100.00
2023-05-05T02:15:31.605Z,100.00
2023-05-05T02:16:33.930Z,100.00
2023-05-05T02:17:35.592Z,100.00
2023-05-05T02:18:37.614Z,100.00
2023-05-05T02:19:42.995Z,100.00
2023-05-05T02:20:46.955Z,100.00
2023-05-05T02:21:48.523Z,100.00
2023-05-05T02:22:50.241Z,100.00
2023-05-05T02:23:52.627Z,100.00
2023-05-05T02:24:54.782Z,100.00
2023-05-05T02:26:02.996Z,100.00
2023-05-05T02:27:07.281Z,100.00
2023-05-05T02:28:21.165Z,100.00
2023-05-05T02:29:44.961Z,100.00
2023-05-05T02:30:55.540Z,100.00
2023-05-05T02:32:07.233Z,100.00
2023-05-05T02:33:10.114Z,100.00
2023-05-05T02:34:16.117Z,100.00
2023-05-05T02:35:21.515Z,100.00
2023-05-05T02:36:27.501Z,100.00
2023-05-05T02:37:34.080Z,100.00
2023-05-05T02:38:40.245Z,100.00
2023-05-05T02:39:47.194Z,100.00
2023-05-05T02:40:55.762Z,100.00
2023-05-05T02:41:59.218Z,100.00
2023-05-05T02:43:07.861Z,100.00
2023-05-05T02:44:12.533Z,100.00
2023-05-05T02:45:19.936Z,100.00
2023-05-05T02:46:23.549Z,100.00
2023-05-05T02:47:34.329Z,100.00
2023-05-05T02:48:35.924Z,100.00
2023-05-05T02:49:37.540Z,100.00
2023-05-05T02:50:39.192Z,100.00
2023-05-05T02:51:50.380Z,100.00
2023-05-05T02:52:59.704Z,100.00
2023-05-05T02:54:01.999Z,100.00
2023-05-05T02:55:05.360Z,100.00
2023-05-05T02:58:00.608Z,100.00
2023-05-05T02:59:19.477Z,100.00
2023-05-05T03:00:23.809Z,100.00
2023-05-05T03:01:34.190Z,100.00
2023-05-05T03:02:47.861Z,100.00
2023-05-05T03:04:08.393Z,100.00
2023-05-05T03:05:23.743Z,100.00
2023-05-05T03:06:28.308Z,100.00
2023-05-05T03:07:52.673Z,100.00
2023-05-05T03:09:11.224Z,100.00
2023-05-05T03:10:21.234Z,100.00
2023-05-05T03:11:37.077Z,100.00
2023-05-05T03:12:48.340Z,100.00
2023-05-05T03:14:08.686Z,100.00
2023-05-05T03:15:11.077Z,100.00
2023-05-05T03:16:15.446Z,100.00
2023-05-05T03:17:19.525Z,100.00
2023-05-05T03:18:23.508Z,100.00
2023-05-05T03:19:32.428Z,100.00
2023-05-05T03:20:36.397Z,100.00
2023-05-05T03:21:42.023Z,100.00
2023-05-05T03:22:44.155Z,100.00
2023-05-05T03:23:48.285Z,100.00
2023-05-05T03:24:54.538Z,100.00
2023-05-05T03:25:58.756Z,100.00
2023-05-05T03:27:04.978Z,100.00
2023-05-05T03:28:10.704Z,100.00
2023-05-05T03:29:13.674Z,100.00
2023-05-05T03:30:15.312Z,100.00
2023-05-05T03:31:22.854Z,100.00
2023-05-05T03:32:28.811Z,100.00
2023-05-05T03:33:31.019Z,100.00
2023-05-05T03:34:34.841Z,100.00
2023-05-05T03:35:37.951Z,100.00
2023-05-05T03:36:41.924Z,100.00
2023-05-05T03:37:46.235Z,100.00
2023-05-05T03:38:50.382Z,100.00
2023-05-05T03:39:53.974Z,100.00
2023-05-05T03:40:56.568Z,100.00
2023-05-05T03:42:00.763Z,100.00
2023-05-05T03:43:05.927Z,100.00
2023-05-05T03:44:07.475Z,100.00
2023-05-05T03:45:10.669Z,100.00
2023-05-05T03:46:13.918Z,100.00
2023-05-05T03:47:17.024Z,100.00
2023-05-05T03:48:19.675Z,100.00
2023-05-05T03:49:21.620Z,100.00
2023-05-05T03:50:24.258Z,100.00
2023-05-05T03:51:26.000Z,100.00
2023-05-05T03:52:27.875Z,100.00
2023-05-05T03:53:29.750Z,100.00
2023-05-05T03:54:31.399Z,100.00
2023-05-05T03:55:32.986Z,100.00
2023-05-05T03:56:34.539Z,100.00
2023-05-05T03:57:36.082Z,100.00
2023-05-05T03:58:37.705Z,100.00
2023-05-05T03:59:39.294Z,100.00
2023-05-05T04:00:41.205Z,100.00
2023-05-05T04:01:43.074Z,100.00
2023-05-05T04:02:44.703Z,100.00
2023-05-05T04:03:48.522Z,100.00
2023-05-05T04:04:50.195Z,100.00
2023-05-05T04:05:51.759Z,100.00
2023-05-05T04:06:53.464Z,100.00
2023-05-05T04:07:55.065Z,100.00
2023-05-05T04:08:56.652Z,100.00
2023-05-05T04:09:58.247Z,100.00
2023-05-05T04:11:00.055Z,100.00
2023-05-05T04:12:01.687Z,100.00
2023-05-05T04:13:03.836Z,100.00
2023-05-05T04:14:06.252Z,100.00
2023-05-05T04:15:08.283Z,100.00
2023-05-05T04:16:10.187Z,100.00
2023-05-05T04:17:13.155Z,100.00
2023-05-05T04:18:14.856Z,100.00
2023-05-05T04:19:16.423Z,100.00
2023-05-05T04:20:18.018Z,100.00
2023-05-05T04:21:19.582Z,100.00
2023-05-05T04:22:21.389Z,100.00
2023-05-05T04:23:23.101Z,100.00
2023-05-05T04:24:24.990Z,100.00
2023-05-05T04:25:28.461Z,100.00
2023-05-05T04:26:30.328Z,100.00
2023-05-05T04:27:32.127Z,100.00
2023-05-05T04:28:34.932Z,100.00
2023-05-05T04:29:36.582Z,100.00
2023-05-05T04:30:38.204Z,100.00
2023-05-05T04:31:39.801Z,100.00
2023-05-05T04:32:41.464Z,100.00
2023-05-05T04:33:43.572Z,100.00
2023-05-05T04:34:45.503Z,100.00
2023-05-05T04:35:47.092Z,100.00
2023-05-05T04:36:49.137Z,100.00
2023-05-05T04:37:51.111Z,100.00
2023-05-05T04:38:52.764Z,100.00
2023-05-05T04:39:54.489Z,100.00
2023-05-05T04:40:56.190Z,100.00
2023-05-05T04:41:57.745Z,100.00
2023-05-05T04:42:59.479Z,100.00
2023-05-05T04:44:01.019Z,100.00
2023-05-05T04:45:02.979Z,100.00
2023-05-05T04:46:05.324Z,100.00
2023-05-05T04:47:09.976Z,100.00
2023-05-05T04:48:12.526Z,100.00
2023-05-05T04:49:14.109Z,100.00
2023-05-05T04:50:16.110Z,100.00
2023-05-05T04:51:17.684Z,100.00
2023-05-05T04:52:19.323Z,100.00
2023-05-05T04:53:20.895Z,100.00
2023-05-05T04:54:22.632Z,100.00
2023-05-05T04:55:24.189Z,100.00
2023-05-05T04:56:25.748Z,100.00
2023-05-05T04:57:27.310Z,100.00
2023-05-05T04:58:29.010Z,100.00
2023-05-05T04:59:30.711Z,100.00
2023-05-05T05:00:32.320Z,100.00
2023-05-05T05:01:35.221Z,100.00
2023-05-05T05:02:38.999Z,100.00
2023-05-05T05:03:40.728Z,100.00
2023-05-05T05:04:43.141Z,99.51
2023-05-05T05:05:46.094Z,99.13
2023-05-05T05:06:48.024Z,97.97
2023-05-05T05:07:49.590Z,97.84
2023-05-05T05:08:51.171Z,97.59
2023-05-05T05:09:52.704Z,96.39
2023-05-05T05:10:54.286Z,95.71
2023-05-05T05:11:59.635Z,95.17
2023-05-05T05:13:01.541Z,94.49
2023-05-05T05:14:03.161Z,94.55
2023-05-05T05:15:05.248Z,94.20
2023-05-05T05:16:07.675Z,93.44
2023-05-05T05:17:09.386Z,92.83
2023-05-05T05:18:10.930Z,92.06
2023-05-05T05:19:13.545Z,91.16
2023-05-05T05:20:15.164Z,90.09
2023-05-05T05:21:16.786Z,89.24
2023-05-05T05:22:18.600Z,88.43
2023-05-05T05:23:20.228Z,87.42
2023-05-05T05:24:21.807Z,86.06
2023-05-05T05:25:24.137Z,84.37
2023-05-05T05:26:25.810Z,84.06
2023-05-05T05:27:27.414Z,84.34
2023-05-05T05:28:30.140Z,83.95
2023-05-05T05:29:33.829Z,84.51
2023-05-05T05:30:36.184Z,84.52
2023-05-05T05:31:40.028Z,83.64
2023-05-05T05:32:41.985Z,83.46
2023-05-05T05:33:43.947Z,82.45
2023-05-05T05:34:47.547Z,81.92
2023-05-05T05:35:49.467Z,81.31
2023-05-05T05:36:52.608Z,80.61
2023-05-05T05:37:54.400Z,79.96
2023-05-05T05:38:56.036Z,79.83
2023-05-05T05:39:57.607Z,77.49
2023-05-05T05:41:05.051Z,79.12
2023-05-05T05:42:06.598Z,80.36
2023-05-05T05:43:08.280Z,81.27
2023-05-05T05:44:11.140Z,81.35
2023-05-05T05:45:12.782Z,80.97
2023-05-05T05:46:14.870Z,79.98
2023-05-05T05:47:17.425Z,79.90
2023-05-05T05:48:19.498Z,79.29
2023-05-05T05:49:21.146Z,79.62
2023-05-05T05:50:22.893Z,80.49
2023-05-05T05:51:24.514Z,80.55
2023-05-05T05:52:26.091Z,80.84
2023-05-05T05:53:27.864Z,82.39
2023-05-05T05:54:30.082Z,83.55
2023-05-05T05:55:31.763Z,84.93
2023-05-05T05:56:33.580Z,84.78
2023-05-05T05:57:35.273Z,84.36
2023-05-05T05:58:37.739Z,83.55
2023-05-05T05:59:39.330Z,82.96
2023-05-05T06:00:41.261Z,82.33
2023-05-05T06:01:44.684Z,82.76
2023-05-05T06:02:46.321Z,82.03
2023-05-05T06:03:51.696Z,82.38
2023-05-05T06:04:53.683Z,84.06
2023-05-05T06:05:55.522Z,84.21
2023-05-05T06:06:57.474Z,85.04
2023-05-05T06:07:59.414Z,85.32
2023-05-05T06:09:02.119Z,85.81
2023-05-05T06:10:25.165Z,86.81
2023-05-05T06:11:29.551Z,87.12
2023-05-05T06:12:31.090Z,87.90
2023-05-05T06:13:32.658Z,87.40
2023-05-05T06:14:34.244Z,87.12
2023-05-05T06:15:36.043Z,87.08
2023-05-05T06:16:39.154Z,87.25
2023-05-05T06:17:44.741Z,87.53
2023-05-05T06:18:47.005Z,87.78
2023-05-05T06:19:48.675Z,87.78
2023-05-05T06:20:50.880Z,87.61
2023-05-05T06:21:53.782Z,87.61
2023-05-05T06:22:55.372Z,86.90
2023-05-05T06:23:57.673Z,86.65
2023-05-05T06:24:59.280Z,86.80
2023-05-05T06:26:00.939Z,86.27
2023-05-05T06:27:02.529Z,86.58
2023-05-05T06:28:04.282Z,86.71
2023-05-05T06:29:05.916Z,86.89
2023-05-05T06:30:08.173Z,87.41
2023-05-05T06:31:09.957Z,87.10
2023-05-05T06:32:11.501Z,86.91
2023-05-05T06:33:13.036Z,86.90
2023-05-05T06:34:14.593Z,86.99
2023-05-05T06:35:16.216Z,87.59
2023-05-05T06:36:17.788Z,87.62
2023-05-05T06:37:19.404Z,87.06
2023-05-05T06:38:21.020Z,86.90
2023-05-05T06:39:22.552Z,88.14
2023-05-05T06:40:24.111Z,87.81
2023-05-05T06:41:25.666Z,87.33
2023-05-05T06:42:27.268Z,87.64
2023-05-05T06:43:29.345Z,87.84
2023-05-05T06:44:34.162Z,88.37
2023-05-05T06:45:35.818Z,88.03
2023-05-05T06:46:37.411Z,87.96
2023-05-05T06:47:39.099Z,87.19
2023-05-05T06:48:41.032Z,86.23
2023-05-05T06:49:42.608Z,85.60
2023-05-05T06:50:44.251Z,85.85
2023-05-05T06:51:45.824Z,85.54
2023-05-05T06:52:47.395Z,85.36
2023-05-05T06:53:48.934Z,85.73
2023-05-05T06:54:50.493Z,86.29
2023-05-05T06:55:52.077Z,87.08
2023-05-05T06:56:53.634Z,87.72
2023-05-05T06:57:55.212Z,87.29
2023-05-05T06:58:56.764Z,87.02
2023-05-05T06:59:58.448Z,86.29
2023-05-05T07:01:00.089Z,85.38
2023-05-05T07:02:01.708Z,84.92
2023-05-05T07:03:03.566Z,83.92
2023-05-05T07:04:05.278Z,83.83
2023-05-05T07:05:07.137Z,83.60
2023-05-05T07:06:08.782Z,82.57
2023-05-05T07:07:10.388Z,82.66
2023-05-05T07:08:12.657Z,81.87
2023-05-05T07:09:15.225Z,80.71
2023-05-05T07:10:18.609Z,79.53
2023-05-05T07:11:21.378Z,79.76
2023-05-05T07:12:23.144Z,79.32
2023-05-05T07:13:24.742Z,79.46
2023-05-05T07:14:26.291Z,79.42
2023-05-05T07:15:29.534Z,80.35
2023-05-05T07:16:31.488Z,80.83
2023-05-05T07:17:33.051Z,81.28
2023-05-05T07:18:34.638Z,81.61
2023-05-05T07:19:36.176Z,81.59
2023-05-05T07:20:37.782Z,81.39
2023-05-05T07:21:39.495Z,82.36
2023-05-05T07:22:41.053Z,82.76
2023-05-05T07:23:42.633Z,82.47
2023-05-05T07:24:44.215Z,81.83
2023-05-05T07:25:45.817Z,81.39
2023-05-05T07:26:47.365Z,80.92
2023-05-05T07:27:48.969Z,80.56
2023-05-05T07:28:50.562Z,80.08
2023-05-05T07:29:52.102Z,79.09
2023-05-05T07:30:53.673Z,79.18
2023-05-05T07:31:55.230Z,78.31
2023-05-05T07:32:56.939Z,78.65
2023-05-05T07:33:58.572Z,79.59
2023-05-05T07:35:00.159Z,78.09
2023-05-05T07:36:01.769Z,77.03
2023-05-05T07:37:04.081Z,77.07
2023-05-05T07:38:05.713Z,76.83
2023-05-05T07:39:07.291Z,76.42
2023-05-05T07:40:09.357Z,75.75
2023-05-05T07:41:11.159Z,75.87
2023-05-05T07:42:12.749Z,75.81
2023-05-05T07:43:14.306Z,75.87
2023-05-05T07:44:15.872Z,76.03
2023-05-05T07:45:17.568Z,75.20
2023-05-05T07:46:19.284Z,73.28
2023-05-05T07:47:20.959Z,73.40
2023-05-05T07:48:22.633Z,73.84
2023-05-05T07:49:24.673Z,73.13
2023-05-05T07:50:26.319Z,72.71
2023-05-05T07:51:27.951Z,72.40
2023-05-05T07:52:44.218Z,72.35
2023-05-05T07:53:49.674Z,71.74
2023-05-05T07:54:51.211Z,71.94
2023-05-05T07:55:52.795Z,71.95
2023-05-05T07:56:54.372Z,71.86
2023-05-05T07:57:55.959Z,72.74
2023-05-05T07:58:57.520Z,73.05
2023-05-05T07:59:59.091Z,74.27
2023-05-05T08:01:00.668Z,73.96
2023-05-05T08:02:02.255Z,73.43
2023-05-05T08:03:04.056Z,73.44
2023-05-05T08:04:06.064Z,73.67
2023-05-05T08:05:08.371Z,74.97
2023-05-05T08:06:10.522Z,75.38
2023-05-05T08:07:12.094Z,74.10
2023-05-05T08:08:13.634Z,73.76
2023-05-05T08:09:15.178Z,73.80
2023-05-05T08:10:16.703Z,72.84
2023-05-05T08:11:19.433Z,72.23
2023-05-05T08:12:20.987Z,73.05
2023-05-05T08:13:22.543Z,71.42
2023-05-05T08:14:24.120Z,71.29
2023-05-05T08:15:25.727Z,69.69
2023-05-05T08:16:27.553Z,69.33
2023-05-05T08:17:29.183Z,68.23
2023-05-05T08:18:30.780Z,68.73
2023-05-05T08:19:32.292Z,64.43
2023-05-05T08:20:33.801Z,66.36
2023-05-05T08:21:35.408Z,67.52
2023-05-05T08:22:36.944Z,64.11
2023-05-05T08:23:39.498Z,65.21
2023-05-05T08:24:41.031Z,64.27
2023-05-05T08:25:43.522Z,65.76
2023-05-05T08:26:45.166Z,66.73
2023-05-05T08:27:46.741Z,66.80
2023-05-05T08:28:48.384Z,66.03
2023-05-05T08:29:49.918Z,64.16
2023-05-05T08:30:51.678Z,64.28
2023-05-05T08:31:53.279Z,64.11
2023-05-05T08:32:54.883Z,64.95
2023-05-05T08:33:56.657Z,63.86
2023-05-05T08:34:58.420Z,64.56
2023-05-05T08:36:00.168Z,63.97
2023-05-05T08:37:01.698Z,63.39
2023-05-05T08:38:03.282Z,63.45
2023-05-05T08:39:04.848Z,60.89
2023-05-05T08:40:07.696Z,60.36
2023-05-05T08:41:12.855Z,60.63
2023-05-05T08:42:22.276Z,60.59
2023-05-05T08:43:30.808Z,60.23
2023-05-05T08:44:33.468Z,60.57
2023-05-05T08:45:35.471Z,60.17
2023-05-05T08:46:39.055Z,60.53
2023-05-05T08:47:40.733Z,62.03
2023-05-05T08:48:43.950Z,59.73
2023-05-05T08:49:47.186Z,60.33
2023-05-05T08:50:55.834Z,62.54
2023-05-05T08:52:01.067Z,64.18
2023-05-05T08:53:16.882Z,63.13
2023-05-05T08:54:19.877Z,62.15
2023-05-05T08:55:24.052Z,60.81
2023-05-05T08:56:34.152Z,59.73
2023-05-05T08:57:49.072Z,60.20
2023-05-05T08:58:51.639Z,61.14
2023-05-05T08:59:54.405Z,60.14
2023-05-05T09:00:56.666Z,58.89
2023-05-05T09:01:59.396Z,59.13
2023-05-05T09:03:01.250Z,61.45
2023-05-05T09:04:05.771Z,61.59
2023-05-05T09:05:08.106Z,61.68
2023-05-05T09:06:10.563Z,61.49
2023-05-05T09:07:12.356Z,61.19
2023-05-05T09:08:14.078Z,60.26
2023-05-05T09:09:15.667Z,60.32
2023-05-05T09:10:17.995Z,61.06
2023-05-05T09:11:19.611Z,60.77
2023-05-05T09:12:22.227Z,59.63
2023-05-05T09:13:24.943Z,59.67
2023-05-05T09:14:26.441Z,58.75
2023-05-05T09:15:28.001Z,59.75
2023-05-05T09:16:29.685Z,59.19
2023-05-05T09:17:31.358Z,59.01
2023-05-05T09:18:32.928Z,59.19
2023-05-05T09:19:56.675Z,59.03
2023-05-05T09:20:59.603Z,60.89
2023-05-05T09:22:01.251Z,58.80
2023-05-05T09:23:16.521Z,58.42
2023-05-05T09:24:18.048Z,55.98
2023-05-05T09:25:19.564Z,56.66
2023-05-05T09:26:21.115Z,58.74
2023-05-05T09:27:22.664Z,57.42
2023-05-05T09:28:24.286Z,57.47
2023-05-05T09:29:26.162Z,57.07
2023-05-05T09:30:27.705Z,57.74
2023-05-05T09:31:32.900Z,58.87
2023-05-05T09:32:43.469Z,58.46
2023-05-05T09:33:46.103Z,57.25
2023-05-05T09:34:58.651Z,57.43
2023-05-05T09:36:00.226Z,58.64
2023-05-05T09:37:01.872Z,57.89
2023-05-05T09:38:12.765Z,56.91
2023-05-05T09:39:19.166Z,56.70
2023-05-05T09:40:21.278Z,56.26
2023-05-05T09:41:43.462Z,55.29
2023-05-05T09:42:45.644Z,55.19
2023-05-05T09:43:51.573Z,54.59
2023-05-05T09:44:53.743Z,55.22
2023-05-05T09:46:06.916Z,55.28
2023-05-05T09:47:22.091Z,56.03
2023-05-05T09:48:30.067Z,54.96
2023-05-05T09:49:31.622Z,55.54
2023-05-05T09:50:43.890Z,53.72
2023-05-05T09:51:46.586Z,54.11
2023-05-05T09:52:59.394Z,53.23
2023-05-05T09:54:00.940Z,53.41
2023-05-05T09:55:02.643Z,54.64
2023-05-05T09:56:04.549Z,54.94
2023-05-05T09:57:06.162Z,55.28
2023-05-05T09:58:20.185Z,54.37
2023-05-05T09:59:22.831Z,56.44
2023-05-05T10:00:37.746Z,56.25
2023-05-05T10:01:39.291Z,55.72
2023-05-05T10:02:40.892Z,55.12
2023-05-05T10:03:51.500Z,56.12
2023-05-05T10:05:12.064Z,55.25
2023-05-05T10:06:13.612Z,54.74
2023-05-05T10:07:24.254Z,55.17
2023-05-05T10:08:27.793Z,54.59
2023-05-05T10:09:29.700Z,54.01
2023-05-05T10:10:31.316Z,55.47
2023-05-05T10:11:34.216Z,53.20
2023-05-05T10:12:36.475Z,53.35
2023-05-05T10:13:40.978Z,51.58
2023-05-05T10:14:43.428Z,51.84
2023-05-05T10:15:46.974Z,52.18
2023-05-05T10:16:50.566Z,52.33
2023-05-05T10:18:06.179Z,52.50
2023-05-05T10:19:11.572Z,50.36
2023-05-05T10:20:14.744Z,50.35
2023-05-05T10:21:20.328Z,51.07
2023-05-05T10:22:23.080Z,50.96
2023-05-05T10:23:34.530Z,51.30
2023-05-05T10:24:42.661Z,50.63
2023-05-05T10:25:53.334Z,50.30
2023-05-05T10:26:56.704Z,50.55
2023-05-05T10:28:00.524Z,48.88
2023-05-05T10:29:05.312Z,47.35
2023-05-05T10:30:08.252Z,47.09
2023-05-05T10:31:25.820Z,48.45
2023-05-05T10:32:56.814Z,47.69
2023-05-05T10:34:34.700Z,47.21
2023-05-05T10:35:41.094Z,47.67
2023-05-05T10:36:42.722Z,46.37
2023-05-05T10:37:44.668Z,47.19
2023-05-05T10:38:46.595Z,47.51
2023-05-05T10:39:49.945Z,47.86
2023-05-05T10:40:52.370Z,47.89
2023-05-05T10:41:53.972Z,46.05
2023-05-05T10:42:55.900Z,46.46
2023-05-05T10:44:00.396Z,46.19
2023-05-05T10:45:03.077Z,46.21
2023-05-05T10:46:05.031Z,46.67
2023-05-05T10:47:07.791Z,47.44
2023-05-05T10:48:22.701Z,47.49
2023-05-05T10:49:39.446Z,46.08
2023-05-05T10:51:15.348Z,45.79
2023-05-05T10:52:28.932Z,45.95
2023-05-05T10:53:39.059Z,46.07
2023-05-05T10:54:57.667Z,45.78
2023-05-05T10:56:23.647Z,45.22
2023-05-05T10:57:28.543Z,45.58
2023-05-05T10:58:55.488Z,45.45
2023-05-05T11:00:00.323Z,44.84
2023-05-05T11:01:02.713Z,45.31
2023-05-05T11:02:26.407Z,45.66
2023-05-05T11:03:28.501Z,45.14
2023-05-05T11:04:30.775Z,44.69
2023-05-05T11:05:32.385Z,45.34
2023-05-05T11:06:33.884Z,46.33
2023-05-05T11:07:37.151Z,46.88
2023-05-05T11:08:44.034Z,45.92
2023-05-05T11:10:02.706Z,45.74
2023-05-05T11:11:05.600Z,45.31
2023-05-05T11:12:07.669Z,44.94
2023-05-05T11:13:09.172Z,45.91
2023-05-05T11:14:20.485Z,44.05
2023-05-05T11:15:28.086Z,45.35
2023-05-05T11:16:41.598Z,44.77
2023-05-05T11:17:47.004Z,45.39
2023-05-05T11:18:48.593Z,45.65
2023-05-05T11:19:50.218Z,44.87
2023-05-05T11:20:57.678Z,45.19
2023-05-05T11:22:02.384Z,44.76
2023-05-05T11:23:03.961Z,44.94
2023-05-05T11:24:28.768Z,44.30
2023-05-05T11:25:36.565Z,45.12
2023-05-05T11:26:51.529Z,44.62
2023-05-05T11:28:05.948Z,44.73
2023-05-05T11:29:07.553Z,45.47
2023-05-05T11:30:10.322Z,45.17
2023-05-05T11:31:16.570Z,45.66
2023-05-05T11:32:18.157Z,46.93
2023-05-05T11:33:36.513Z,46.90
2023-05-05T11:34:48.494Z,46.08
2023-05-05T11:36:05.992Z,45.76
2023-05-05T11:37:08.466Z,47.73
2023-05-05T11:38:10.278Z,47.43
2023-05-05T11:39:17.484Z,45.73
2023-05-05T11:40:30.396Z,46.63
2023-05-05T11:41:31.926Z,46.31
2023-05-05T11:42:33.882Z,45.69
2023-05-05T11:43:35.756Z,45.48
2023-05-05T11:44:37.954Z,45.30
2023-05-05T11:45:39.565Z,45.47
2023-05-05T11:47:03.720Z,46.81
2023-05-05T11:48:28.278Z,47.25
2023-05-05T11:49:31.880Z,46.39
2023-05-05T11:50:33.466Z,47.65
2023-05-05T11:51:35.522Z,47.45
2023-05-05T11:52:37.088Z,46.35
2023-05-05T11:53:42.565Z,46.71
2023-05-05T11:54:46.253Z,45.77
2023-05-05T11:55:47.812Z,44.89
2023-05-05T11:56:50.387Z,44.84
2023-05-05T11:57:53.008Z,44.59
2023-05-05T11:59:10.886Z,44.94
2023-05-05T12:00:13.051Z,45.60
2023-05-05T12:01:15.500Z,44.73
2023-05-05T12:02:20.661Z,44.45
2023-05-05T12:03:22.434Z,44.76
2023-05-05T12:04:24.168Z,44.42
2023-05-05T12:05:25.856Z,44.52
2023-05-05T12:06:27.506Z,45.27
2023-05-05T12:07:31.218Z,44.48
2023-05-05T12:08:39.656Z,43.66
2023-05-05T12:09:43.215Z,44.93
2023-05-05T12:10:45.523Z,43.48
2023-05-05T12:11:55.463Z,43.17
2023-05-05T12:12:57.088Z,42.64
2023-05-05T12:14:11.764Z,42.48
2023-05-05T12:15:13.324Z,43.00
2023-05-05T12:16:15.912Z,42.56
2023-05-05T12:17:21.632Z,43.19
2023-05-05T12:18:23.209Z,43.23
2023-05-05T12:19:24.953Z,42.41
2023-05-05T12:20:30.616Z,42.14
2023-05-05T12:21:32.403Z,42.46
2023-05-05T12:22:34.111Z,42.61
2023-05-05T12:23:39.085Z,43.02
2023-05-05T12:24:40.687Z,42.98
2023-05-05T12:25:42.194Z,42.71
2023-05-05T12:26:43.783Z,42.44
2023-05-05T12:27:52.637Z,42.10
2023-05-05T12:28:55.200Z,42.89
2023-05-05T12:30:09.943Z,42.35
2023-05-05T12:31:11.841Z,42.23
2023-05-05T12:32:28.974Z,42.42
2023-05-05T12:33:30.706Z,43.31
2023-05-05T12:34:32.737Z,43.30
2023-05-05T12:35:34.816Z,43.34
2023-05-05T12:36:36.753Z,43.40
2023-05-05T12:37:39.043Z,43.37
2023-05-05T12:38:40.870Z,43.20
2023-05-05T12:39:42.364Z,43.19
2023-05-05T12:40:45.982Z,42.70
2023-05-05T12:41:47.620Z,42.44
2023-05-05T12:42:49.176Z,42.71
2023-05-05T12:43:58.148Z,42.79
2023-05-05T12:44:59.696Z,43.28
2023-05-05T12:46:11.976Z,43.44
2023-05-05T12:47:14.510Z,42.88
2023-05-05T12:48:22.277Z,42.87
2023-05-05T12:49:23.799Z,41.99
2023-05-05T12:50:32.317Z,42.28
2023-05-05T12:51:37.409Z,42.60
2023-05-05T12:52:44.512Z,42.94
2023-05-05T12:53:48.826Z,42.48
2023-05-05T12:54:57.592Z,42.24
2023-05-05T12:55:59.126Z,42.89
2023-05-05T12:57:11.177Z,42.71
2023-05-05T12:58:12.689Z,42.60
2023-05-05T12:59:23.042Z,44.44
2023-05-05T13:00:25.344Z,40.90
2023-05-05T13:01:28.057Z,40.69
2023-05-05T13:02:36.044Z,39.90
2023-05-05T13:03:37.775Z,40.08
2023-05-05T13:04:57.016Z,40.12
2023-05-05T13:05:58.586Z,40.15
2023-05-05T13:07:13.520Z,39.51
2023-05-05T13:08:15.152Z,39.99
2023-05-05T13:09:27.257Z,39.76
2023-05-05T13:10:28.790Z,39.61
2023-05-05T13:11:30.378Z,39.62
2023-05-05T13:12:31.984Z,39.48
2023-05-05T13:13:33.546Z,39.56
2023-05-05T13:14:35.325Z,41.20
2023-05-05T13:15:36.867Z,41.45
2023-05-05T13:16:38.459Z,40.54
2023-05-05T13:17:40.044Z,40.05
2023-05-05T13:18:48.686Z,38.95
2023-05-05T13:19:50.182Z,39.09
2023-05-05T13:20:51.730Z,38.72
2023-05-05T13:21:57.288Z,39.61
2023-05-05T13:22:58.828Z,39.63
2023-05-05T13:24:12.367Z,39.28
2023-05-05T13:25:21.855Z,39.46
2023-05-05T13:26:23.384Z,37.96
2023-05-05T13:27:24.934Z,38.13
2023-05-05T13:28:26.426Z,38.53
2023-05-05T13:29:31.422Z,38.47
2023-05-05T13:30:33.313Z,40.52
2023-05-05T13:31:34.979Z,41.02
2023-05-05T13:32:36.779Z,40.58
2023-05-05T13:33:38.407Z,38.80
2023-05-05T13:34:39.924Z,38.73
2023-05-05T13:35:41.474Z,38.29
2023-05-05T13:36:43.022Z,38.49
2023-05-05T13:37:44.544Z,38.13
2023-05-05T13:38:46.054Z,38.46
2023-05-05T13:39:47.588Z,38.59
2023-05-05T13:40:49.123Z,39.35
2023-05-05T13:41:50.668Z,39.47
2023-05-05T13:42:52.197Z,40.02